createdAt,value
2018-03-22T00:01:10.233Z,46.67
2018-03-22T00:03:37.845Z,54.00
2018-03-22T00:06:05.661Z,54.17
2018-03-22T00:08:33.436Z,51.70
2018-03-22T00:11:01.097Z,51.70
2018-03-22T00:13:28.889Z,52.77
2018-03-22T00:15:56.563Z,49.17
2018-03-22T00:18:24.150Z,47.47
2018-03-22T00:20:52.129Z,52.80
2018-03-22T00:23:20.004Z,51.40
2018-03-22T00:25:47.775Z,60.50
2018-03-22T00:28:15.554Z,51.50
2018-03-22T00:30:43.331Z,56.37
2018-03-22T00:33:11.001Z,48.97
2018-03-22T00:35:38.891Z,59.03
2018-03-22T00:38:06.553Z,53.70
2018-03-22T00:40:34.304Z,54.03
2018-03-22T00:43:02.120Z,59.70
2018-03-22T00:45:29.712Z,57.50
2018-03-22T00:47:57.359Z,56.07
2018-03-22T00:50:25.030Z,50.33
2018-03-22T00:52:52.721Z,68.83
2018-03-22T00:55:20.436Z,52.07
2018-03-22T00:57:48.277Z,46.53
2018-03-22T01:00:16.056Z,70.50
2018-03-22T01:02:43.731Z,59.80
2018-03-22T01:05:11.514Z,67.47
2018-03-22T01:07:39.181Z,68.53
2018-03-22T01:10:06.789Z,62.70
2018-03-22T01:12:34.634Z,60.57
2018-03-22T01:15:02.219Z,76.50
2018-03-22T01:17:29.987Z,72.30
2018-03-22T01:19:57.650Z,73.90
2018-03-22T01:22:25.439Z,68.77
2018-03-22T01:24:53.113Z,86.40
2018-03-22T01:27:20.765Z,67.67
2018-03-22T01:29:48.560Z,64.10
2018-03-22T01:32:16.312Z,50.50
2018-03-22T01:34:44.092Z,67.47
2018-03-22T01:37:11.901Z,71.80
2018-03-22T01:39:39.681Z,66.07
2018-03-22T01:42:07.328Z,74.63
2018-03-22T01:44:34.925Z,80.23
2018-03-22T01:47:02.710Z,66.97
2018-03-22T01:49:30.369Z,67.10
2018-03-22T01:51:58.051Z,82.20
2018-03-22T01:54:25.728Z,71.73
2018-03-22T01:56:53.512Z,82.93
2018-03-22T01:59:21.087Z,66.73
2018-03-22T02:01:48.871Z,76.50
2018-03-22T02:04:16.496Z,83.47
2018-03-22T02:06:44.316Z,69.47
2018-03-22T02:09:12.095Z,77.27
2018-03-22T02:11:39.672Z,84.50
2018-03-22T02:14:07.352Z,85.33
2018-03-22T02:16:35.002Z,80.07
2018-03-22T02:19:02.694Z,106.90
2018-03-22T02:21:30.365Z,97.73
2018-03-22T02:23:57.944Z,83.43
2018-03-22T02:26:25.529Z,102.13
2018-03-22T02:28:53.254Z,95.23
2018-03-22T02:31:20.956Z,77.90
2018-03-22T02:33:48.752Z,102.40
2018-03-22T02:36:16.413Z,99.37
2018-03-22T02:38:44.141Z,85.30
2018-03-22T02:41:11.726Z,93.47
2018-03-22T02:43:39.313Z,91.83
2018-03-22T02:46:07.124Z,108.33
2018-03-22T02:48:34.710Z,87.90
2018-03-22T02:51:02.312Z,104.20
2018-03-22T02:53:30.047Z,87.27
2018-03-22T02:55:57.786Z,111.60
2018-03-22T02:58:25.602Z,96.23
2018-03-22T03:00:53.481Z,96.40
2018-03-22T03:03:21.062Z,87.10
2018-03-22T03:05:48.724Z,92.97
2018-03-22T03:08:16.614Z,97.77
2018-03-22T03:10:44.280Z,94.13
2018-03-22T03:13:11.845Z,65.47
2018-03-22T03:15:39.526Z,105.47
2018-03-22T03:18:07.161Z,114.90
2018-03-22T03:20:34.809Z,106.73
2018-03-22T03:23:02.515Z,94.60
2018-03-22T03:25:30.338Z,96.57
2018-03-22T03:27:58.122Z,118.83
2018-03-22T03:30:25.960Z,72.10
2018-03-22T03:32:53.670Z,94.60
2018-03-22T03:35:21.340Z,99.40
2018-03-22T03:37:49.129Z,101.40
2018-03-22T03:40:16.905Z,109.93
2018-03-22T03:42:44.576Z,99.87
2018-03-22T03:45:12.324Z,115.77
2018-03-22T03:47:40.133Z,116.27
2018-03-22T03:50:07.909Z,108.03
2018-03-22T03:52:35.488Z,122.73
2018-03-22T03:55:03.133Z,112.30
2018-03-22T03:57:30.944Z,85.43
2018-03-22T03:59:58.732Z,103.67
2018-03-22T04:02:26.401Z,133.87
2018-03-22T04:04:54.169Z,139.13
2018-03-22T04:07:21.843Z,114.90
2018-03-22T04:09:49.454Z,114.90
2018-03-22T04:12:17.185Z,105.77
2018-03-22T04:14:44.872Z,97.63
2018-03-22T04:17:12.539Z,117.47
2018-03-22T04:19:40.175Z,101.37
2018-03-22T04:22:07.767Z,122.83
2018-03-22T04:24:35.470Z,101.13
2018-03-22T04:27:03.134Z,88.57
2018-03-22T04:29:30.725Z,111.63
2018-03-22T04:31:58.602Z,85.63
2018-03-22T04:34:26.259Z,58.57
2018-03-22T04:36:53.947Z,100.17
2018-03-22T04:39:21.830Z,99.43
2018-03-22T04:41:49.494Z,68.30
2018-03-22T04:44:17.280Z,93.30
2018-03-22T04:46:44.925Z,74.17
2018-03-22T04:49:12.495Z,72.00
2018-03-22T04:51:40.192Z,79.23
2018-03-22T04:54:07.917Z,64.13
2018-03-22T04:56:35.658Z,74.63
2018-03-22T04:59:03.306Z,78.87
2018-03-22T05:01:31.008Z,74.57
2018-03-22T05:03:58.682Z,86.23
2018-03-22T05:06:26.401Z,85.30
2018-03-22T05:08:54.140Z,81.70
2018-03-22T05:11:21.810Z,80.87
2018-03-22T05:13:49.593Z,101.30
2018-03-22T05:16:17.260Z,88.80
2018-03-22T05:18:44.925Z,84.90
2018-03-22T05:21:12.612Z,74.77
2018-03-22T05:23:40.279Z,77.53
2018-03-22T05:26:08.033Z,73.93
2018-03-22T05:28:35.739Z,54.30
2018-03-22T05:31:03.325Z,77.50
2018-03-22T05:33:30.980Z,103.20
2018-03-22T05:35:58.551Z,67.93
2018-03-22T05:38:26.348Z,95.83
2018-03-22T05:40:54.121Z,86.07
2018-03-22T05:43:21.775Z,77.73
2018-03-22T05:45:49.473Z,101.27
2018-03-22T05:48:17.256Z,81.00
2018-03-22T05:50:45.034Z,96.37
2018-03-22T05:53:13.525Z,97.03
2018-03-22T05:55:41.305Z,95.97
2018-03-22T05:58:09.081Z,84.07
2018-03-22T06:00:36.745Z,70.17
2018-03-22T06:03:04.532Z,104.20
2018-03-22T06:05:32.317Z,93.10
2018-03-22T06:07:59.979Z,103.93
2018-03-22T06:10:27.659Z,48.53
2018-03-22T06:12:55.245Z,79.70
2018-03-22T06:15:22.982Z,82.20
2018-03-22T06:17:50.581Z,67.50
2018-03-22T06:20:18.258Z,69.33
2018-03-22T06:22:45.987Z,68.70
2018-03-22T06:25:13.610Z,78.17
2018-03-22T06:27:41.278Z,80.50
2018-03-22T06:30:09.059Z,64.90
2018-03-22T06:32:36.680Z,64.30
2018-03-22T06:35:04.411Z,67.20
2018-03-22T06:37:32.162Z,69.70
2018-03-22T06:39:59.976Z,73.67
2018-03-22T06:42:27.568Z,68.70
2018-03-22T06:44:55.429Z,60.97
2018-03-22T06:47:23.093Z,71.67
2018-03-22T06:49:50.879Z,69.77
2018-03-22T06:52:18.507Z,66.13
2018-03-22T06:54:47.158Z,68.23
2018-03-22T06:57:14.833Z,65.47
2018-03-22T06:59:42.610Z,64.43
2018-03-22T07:02:10.325Z,67.10
2018-03-22T07:04:38.051Z,47.10
2018-03-22T07:07:05.722Z,57.63
2018-03-22T07:09:33.305Z,55.80
2018-03-22T07:12:01.093Z,49.30
2018-03-22T07:14:28.866Z,54.10
2018-03-22T07:16:56.636Z,53.30
2018-03-22T07:19:24.208Z,51.57
2018-03-22T07:21:51.888Z,53.40
2018-03-22T07:24:19.668Z,38.77
2018-03-22T07:26:47.347Z,46.30
2018-03-22T07:29:14.993Z,46.63
2018-03-22T07:31:42.596Z,43.90
2018-03-22T07:34:10.179Z,41.47
2018-03-22T07:36:37.950Z,37.83
2018-03-22T07:39:05.720Z,38.50
2018-03-22T07:41:33.465Z,33.20
2018-03-22T07:44:06.818Z,47.50
2018-03-22T07:46:34.590Z,38.20
2018-03-22T07:49:02.347Z,32.37
2018-03-22T07:51:30.025Z,36.23
2018-03-22T07:53:58.027Z,39.77
2018-03-22T07:56:25.762Z,35.57
2018-03-22T07:58:53.472Z,36.50
2018-03-22T08:01:21.052Z,32.90
2018-03-22T08:03:48.633Z,37.10
2018-03-22T08:06:16.294Z,43.27
2018-03-22T08:08:43.975Z,52.77
2018-03-22T08:11:11.620Z,35.87
2018-03-22T08:13:39.324Z,41.90
2018-03-22T08:16:06.999Z,37.73
2018-03-22T08:18:34.645Z,35.40
2018-03-22T08:21:02.458Z,34.67
2018-03-22T08:23:30.076Z,36.23
2018-03-22T08:25:58.009Z,35.67
2018-03-22T08:28:25.788Z,33.90
2018-03-22T08:30:53.517Z,34.40
2018-03-22T08:33:21.348Z,35.60
2018-03-22T08:35:49.224Z,33.73
2018-03-22T08:38:16.835Z,30.50
2018-03-22T08:40:44.448Z,29.50
2018-03-22T08:43:12.066Z,36.07
2018-03-22T08:45:39.719Z,39.63
2018-03-22T08:48:07.300Z,42.23
2018-03-22T08:50:34.961Z,41.43
2018-03-22T08:53:02.634Z,45.37
2018-03-22T08:55:30.313Z,44.67
2018-03-22T08:57:57.981Z,47.80
2018-03-22T09:00:25.654Z,42.50
2018-03-22T09:02:53.451Z,49.23
2018-03-22T09:05:21.109Z,46.67
2018-03-22T09:07:48.904Z,50.53
2018-03-22T09:10:16.728Z,51.33
2018-03-22T09:12:44.444Z,48.10
2018-03-22T09:15:12.238Z,51.80
2018-03-22T09:17:40.022Z,53.13
2018-03-22T09:20:07.649Z,43.27
2018-03-22T09:22:35.355Z,51.63
2018-03-22T09:25:03.037Z,50.70
2018-03-22T09:27:30.821Z,48.47
2018-03-22T09:29:58.698Z,52.03
2018-03-22T09:32:26.291Z,50.87
2018-03-22T09:34:53.960Z,41.23
2018-03-22T09:37:21.760Z,50.13
2018-03-22T09:39:49.330Z,45.43
2018-03-22T09:42:16.976Z,59.27
2018-03-22T09:44:44.618Z,42.20
2018-03-22T09:47:12.277Z,40.57
2018-03-22T09:49:40.105Z,55.83
2018-03-22T09:52:07.883Z,45.63
2018-03-22T09:54:35.508Z,47.30
2018-03-22T09:57:03.375Z,46.07
2018-03-22T09:59:31.103Z,50.67
2018-03-22T10:01:58.787Z,37.37
2018-03-22T10:04:26.518Z,44.33
2018-03-22T10:06:54.107Z,45.70
2018-03-22T10:09:21.919Z,41.67
2018-03-22T10:11:49.555Z,34.90
2018-03-22T10:14:17.141Z,65.40
2018-03-22T10:16:44.941Z,48.63
2018-03-22T10:19:12.607Z,47.97
2018-03-22T10:21:40.332Z,54.10
2018-03-22T10:24:08.074Z,50.60
2018-03-22T10:26:35.789Z,53.60
2018-03-22T10:29:03.515Z,43.93
2018-03-22T10:31:31.193Z,42.80
2018-03-22T10:33:58.979Z,41.27
2018-03-22T10:36:26.829Z,58.33
2018-03-22T10:38:54.462Z,40.93
2018-03-22T10:41:22.212Z,29.00
2018-03-22T10:43:49.800Z,39.73
2018-03-22T10:46:17.454Z,37.27
2018-03-22T10:48:45.132Z,37.90
2018-03-22T10:51:12.808Z,38.43
2018-03-22T10:53:40.460Z,38.27
2018-03-22T10:56:08.151Z,36.93
2018-03-22T10:58:35.729Z,30.80
2018-03-22T11:01:09.150Z,36.63
2018-03-22T11:03:42.446Z,39.50
2018-03-22T11:06:10.141Z,40.00
2018-03-22T11:08:37.792Z,39.13
2018-03-22T11:11:05.583Z,27.87
2018-03-22T11:13:33.247Z,32.37
2018-03-22T11:16:01.028Z,32.30
2018-03-22T11:18:28.626Z,26.10
2018-03-22T11:20:56.270Z,43.40
2018-03-22T11:23:23.943Z,27.63
2018-03-22T11:25:51.688Z,36.47
2018-03-22T11:28:19.342Z,25.60
2018-03-22T11:30:47.084Z,32.60
2018-03-22T11:33:14.663Z,27.47
2018-03-22T11:35:42.437Z,26.73
2018-03-22T11:38:10.222Z,30.97
2018-03-22T11:40:37.893Z,21.80
2018-03-22T11:43:05.706Z,25.10
2018-03-22T11:45:33.285Z,23.73
2018-03-22T11:48:01.027Z,22.30
2018-03-22T11:50:28.690Z,28.63
2018-03-22T11:52:56.419Z,21.13
2018-03-22T11:55:24.336Z,22.20
2018-03-22T11:57:52.079Z,17.80
2018-03-22T12:00:19.680Z,33.67
2018-03-22T12:02:47.377Z,26.97
2018-03-22T12:05:15.011Z,20.07
2018-03-22T12:07:42.673Z,21.50
2018-03-22T12:10:10.359Z,23.83
2018-03-22T12:12:38.081Z,25.10
2018-03-22T12:15:05.864Z,30.63
2018-03-22T12:17:33.535Z,35.13
2018-03-22T12:20:01.140Z,24.83
2018-03-22T12:22:28.848Z,28.37
2018-03-22T12:24:56.461Z,25.60
2018-03-22T12:27:24.132Z,15.30
2018-03-22T12:29:51.808Z,21.03
2018-03-22T12:32:19.599Z,18.13
2018-03-22T12:34:47.203Z,23.97
2018-03-22T12:37:14.931Z,13.17
2018-03-22T12:39:42.603Z,19.53
2018-03-22T12:42:10.185Z,11.73
2018-03-22T12:44:37.830Z,5.77
2018-03-22T12:47:05.435Z,13.73
2018-03-22T12:49:33.111Z,10.90
2018-03-22T12:52:00.752Z,14.80
2018-03-22T12:54:28.334Z,11.53
2018-03-22T12:56:55.977Z,12.50
2018-03-22T12:59:23.607Z,7.73
2018-03-22T13:01:51.283Z,11.00
2018-03-22T13:04:19.027Z,9.03
2018-03-22T13:06:46.629Z,6.27
2018-03-22T13:09:14.300Z,8.90
2018-03-22T13:11:41.878Z,6.53
2018-03-22T13:14:09.549Z,13.93
2018-03-22T13:16:37.444Z,7.83
2018-03-22T13:19:05.104Z,6.10
2018-03-22T13:21:32.901Z,6.77
2018-03-22T13:24:00.540Z,8.27
2018-03-22T13:26:28.347Z,9.80
2018-03-22T13:28:56.129Z,4.33
2018-03-22T13:31:23.774Z,10.80
2018-03-22T13:33:51.576Z,4.83
2018-03-22T13:36:19.167Z,3.90
2018-03-22T13:38:47.117Z,5.43
2018-03-22T13:41:14.812Z,6.80
2018-03-22T13:43:42.465Z,7.50
2018-03-22T13:46:10.159Z,3.97
2018-03-22T13:48:37.823Z,4.43
2018-03-22T13:51:05.564Z,5.10
2018-03-22T13:53:33.179Z,6.00
2018-03-22T13:56:00.805Z,6.07
2018-03-22T13:58:28.437Z,4.20
2018-03-22T14:00:56.222Z,2.80
2018-03-22T14:03:24.078Z,5.33
2018-03-22T14:05:51.755Z,6.20
2018-03-22T14:08:19.312Z,5.53
2018-03-22T14:10:47.044Z,10.13
2018-03-22T14:13:14.678Z,7.77
2018-03-22T14:15:42.255Z,3.13
2018-03-22T14:18:09.872Z,12.70
2018-03-22T14:20:37.437Z,4.43
2018-03-22T14:23:05.255Z,4.57
2018-03-22T14:25:32.867Z,4.43
2018-03-22T14:28:00.458Z,7.43
2018-03-22T14:30:28.100Z,3.83
2018-03-22T14:32:55.785Z,2.73
2018-03-22T14:35:23.567Z,4.30
2018-03-22T14:37:51.330Z,3.50
2018-03-22T14:40:19.130Z,4.63
2018-03-22T14:42:46.716Z,4.83
2018-03-22T14:45:14.579Z,5.23
2018-03-22T14:47:42.147Z,4.00
2018-03-22T14:50:09.727Z,4.20
2018-03-22T14:52:37.387Z,4.87
2018-03-22T14:55:05.195Z,3.90
2018-03-22T14:57:32.780Z,7.23
2018-03-22T15:00:00.417Z,4.93
2018-03-22T15:02:28.103Z,4.30
2018-03-22T15:04:55.721Z,2.70
2018-03-22T15:07:23.377Z,3.20
2018-03-22T15:09:51.126Z,1.93
2018-03-22T15:12:18.720Z,2.73
2018-03-22T15:14:46.889Z,2.63
2018-03-22T15:17:14.665Z,5.20
2018-03-22T15:19:42.445Z,4.30
2018-03-22T15:22:10.117Z,2.80
2018-03-22T15:24:37.891Z,3.60
2018-03-22T15:27:05.476Z,2.50
2018-03-22T15:29:33.109Z,10.73
2018-03-22T15:32:00.752Z,5.67
2018-03-22T15:34:28.332Z,3.90
2018-03-22T15:36:56.159Z,8.20
2018-03-22T15:39:23.950Z,4.60
2018-03-22T15:41:51.520Z,2.70
2018-03-22T15:44:19.195Z,3.07
2018-03-22T15:46:46.851Z,4.07
2018-03-22T15:49:14.658Z,7.67
2018-03-22T15:51:42.317Z,4.87
2018-03-22T15:54:10.107Z,3.80
2018-03-22T15:56:37.682Z,4.23
2018-03-22T15:59:05.561Z,5.33
2018-03-22T16:01:33.132Z,4.73
2018-03-22T16:04:00.800Z,5.47
2018-03-22T16:06:28.573Z,3.00
2018-03-22T16:08:56.362Z,6.37
2018-03-22T16:11:24.039Z,6.07
2018-03-22T16:13:51.710Z,2.57
2018-03-22T16:16:19.360Z,8.93
2018-03-22T16:18:47.167Z,6.13
2018-03-22T16:21:14.773Z,2.03
2018-03-22T16:23:42.407Z,3.37
2018-03-22T16:26:10.196Z,3.97
2018-03-22T16:28:37.873Z,5.00
2018-03-22T16:31:05.533Z,8.83
2018-03-22T16:33:33.223Z,6.00
2018-03-22T16:36:01.012Z,8.20
2018-03-22T16:38:28.879Z,4.43
2018-03-22T16:40:56.454Z,6.73
2018-03-22T16:43:24.128Z,5.20
2018-03-22T16:45:51.757Z,5.50
2018-03-22T16:48:19.478Z,7.40
2018-03-22T16:50:47.258Z,8.20
2018-03-22T16:53:15.034Z,9.10
2018-03-22T16:55:44.056Z,5.97
2018-03-22T16:58:11.664Z,6.30
2018-03-22T17:00:39.383Z,7.03
2018-03-22T17:03:07.165Z,5.63
2018-03-22T17:05:34.740Z,9.27
2018-03-22T17:08:02.624Z,9.37
2018-03-22T17:10:30.508Z,11.20
2018-03-22T17:12:58.086Z,11.03
2018-03-22T17:15:25.744Z,15.87
2018-03-22T17:17:53.414Z,5.80
2018-03-22T17:20:21.067Z,12.83
2018-03-22T17:22:49.001Z,10.07
2018-03-22T17:25:16.751Z,9.53
2018-03-22T17:27:44.325Z,7.30
2018-03-22T17:30:11.949Z,13.30
2018-03-22T17:32:39.604Z,11.50
2018-03-22T17:35:07.258Z,9.63
2018-03-22T17:37:34.933Z,10.17
2018-03-22T17:40:02.817Z,17.50
2018-03-22T17:42:30.594Z,17.10
2018-03-22T17:44:58.208Z,9.77
2018-03-22T17:47:25.828Z,12.30
2018-03-22T17:49:53.525Z,12.70
2018-03-22T17:52:21.401Z,10.53
2018-03-22T17:54:49.125Z,13.30
2018-03-22T17:57:16.952Z,11.77
2018-03-22T17:59:44.625Z,10.97
2018-03-22T18:02:12.349Z,12.20
2018-03-22T18:04:40.596Z,13.23
2018-03-22T18:07:08.375Z,14.13
2018-03-22T18:09:36.099Z,14.90
2018-03-22T18:12:03.891Z,12.03
2018-03-22T18:14:31.706Z,16.30
2018-03-22T18:16:59.382Z,17.43
2018-03-22T18:19:27.268Z,13.03
2018-03-22T18:21:55.144Z,15.20
2018-03-22T18:24:22.922Z,15.10
2018-03-22T18:26:50.668Z,14.73
2018-03-22T18:29:18.478Z,13.93
2018-03-22T18:31:46.198Z,12.10
2018-03-22T18:34:13.825Z,20.00
2018-03-22T18:36:42.325Z,20.63
2018-03-22T18:39:10.204Z,17.90
2018-03-22T18:41:37.944Z,19.13
2018-03-22T18:44:05.706Z,20.20
2018-03-22T18:46:33.848Z,23.03
2018-03-22T18:49:01.588Z,29.17
2018-03-22T18:51:29.292Z,24.23
2018-03-22T18:53:56.971Z,31.57
2018-03-22T18:56:24.750Z,34.33
2018-03-22T18:58:52.480Z,29.50
2018-03-22T19:01:20.309Z,35.33
2018-03-22T19:03:47.987Z,27.17
2018-03-22T19:06:15.759Z,47.10
2018-03-22T19:08:43.427Z,30.70
2018-03-22T19:11:11.112Z,45.63
2018-03-22T19:13:38.857Z,30.97
2018-03-22T19:16:06.978Z,32.23
2018-03-22T19:18:34.720Z,47.10
2018-03-22T19:21:02.532Z,45.03
2018-03-22T19:23:30.204Z,40.07
2018-03-22T19:25:58.089Z,36.70
2018-03-22T19:28:26.330Z,51.77
2018-03-22T19:30:54.159Z,55.93
2018-03-22T19:33:21.888Z,44.20
2018-03-22T19:35:49.714Z,36.40
2018-03-22T19:38:17.495Z,42.53
2018-03-22T19:40:45.342Z,40.43
2018-03-22T19:43:13.048Z,37.83
2018-03-22T19:45:40.711Z,33.10
2018-03-22T19:48:08.501Z,30.23
2018-03-22T19:50:36.269Z,36.23
2018-03-22T19:53:03.943Z,39.80
2018-03-22T19:55:31.731Z,36.87
2018-03-22T19:57:59.336Z,29.67
2018-03-22T20:00:27.295Z,44.70
2018-03-22T20:02:55.065Z,42.00
2018-03-22T20:05:22.846Z,46.80
2018-03-22T20:07:50.620Z,47.30
2018-03-22T20:10:18.397Z,54.70
2018-03-22T20:12:46.275Z,38.80
2018-03-22T20:15:14.060Z,57.23
2018-03-22T20:17:41.785Z,61.23
2018-03-22T20:20:09.814Z,72.87
2018-03-22T20:22:37.656Z,53.67
2018-03-22T20:25:05.478Z,37.00
2018-03-22T20:27:33.248Z,38.30
2018-03-22T20:30:01.034Z,66.77
2018-03-22T20:32:28.664Z,40.80
2018-03-22T20:34:56.426Z,38.93
2018-03-22T20:37:24.277Z,51.10
2018-03-22T20:39:52.040Z,34.90
2018-03-22T20:42:19.921Z,44.90
2018-03-22T20:44:49.134Z,50.73
2018-03-22T20:47:16.912Z,47.70
2018-03-22T20:49:44.692Z,54.30
2018-03-22T20:52:12.390Z,49.73
2018-03-22T20:54:40.144Z,39.97
2018-03-22T20:57:07.905Z,70.37
2018-03-22T20:59:35.668Z,68.30
2018-03-22T21:02:03.477Z,56.50
2018-03-22T21:04:31.155Z,70.40
2018-03-22T21:06:58.990Z,60.47
2018-03-22T21:09:26.640Z,65.40
2018-03-22T21:11:54.271Z,41.53
2018-03-22T21:14:22.015Z,72.50
2018-03-22T21:16:49.735Z,67.20
2018-03-22T21:19:17.496Z,79.07
2018-03-22T21:21:45.292Z,57.60
2018-03-22T21:24:13.070Z,71.80
2018-03-22T21:26:40.662Z,52.47
2018-03-22T21:29:08.535Z,78.10
2018-03-22T21:31:36.202Z,58.47
2018-03-22T21:34:03.977Z,90.83
2018-03-22T21:36:31.651Z,60.83
2018-03-22T21:38:59.437Z,47.27
2018-03-22T21:41:27.373Z,44.20
2018-03-22T21:44:07.067Z,41.63
2018-03-22T21:46:35.257Z,50.40
2018-03-22T21:49:02.932Z,51.63
2018-03-22T21:51:30.736Z,55.93
2018-03-22T21:53:58.483Z,51.73
2018-03-22T21:56:26.155Z,51.10
2018-03-22T21:58:53.945Z,44.30
2018-03-22T22:01:21.723Z,55.17
2018-03-22T22:03:49.391Z,68.17
2018-03-22T22:06:17.175Z,51.23
2018-03-22T22:08:44.955Z,57.07
2018-03-22T22:11:12.730Z,48.23
2018-03-22T22:13:40.459Z,60.63
2018-03-22T22:16:08.291Z,42.67
2018-03-22T22:18:36.015Z,64.80
2018-03-22T22:21:03.844Z,57.97
2018-03-22T22:23:31.467Z,70.87
2018-03-22T22:25:59.268Z,49.40
2018-03-22T22:28:27.079Z,53.93
2018-03-22T22:30:54.851Z,63.70
2018-03-22T22:33:22.630Z,57.77
2018-03-22T22:35:50.308Z,65.60
2018-03-22T22:38:18.187Z,61.37
2018-03-22T22:40:45.778Z,61.13
2018-03-22T22:43:13.438Z,50.77
2018-03-22T22:45:41.626Z,60.60
2018-03-22T22:48:09.298Z,65.63
2018-03-22T22:50:37.077Z,51.77
2018-03-22T22:53:04.858Z,52.83
2018-03-22T22:55:32.616Z,56.03
2018-03-22T22:58:00.412Z,53.17
2018-03-22T23:00:28.085Z,59.20
2018-03-22T23:02:55.815Z,47.93
2018-03-22T23:05:23.426Z,48.57
2018-03-22T23:07:51.677Z,55.07
2018-03-22T23:10:19.403Z,44.23
2018-03-22T23:12:47.079Z,49.37
2018-03-22T23:15:14.794Z,56.50
2018-03-22T23:17:42.489Z,45.73
2018-03-22T23:20:10.314Z,58.00
2018-03-22T23:22:37.982Z,70.30
2018-03-22T23:25:05.652Z,56.83
2018-03-22T23:27:33.442Z,61.23
2018-03-22T23:30:01.177Z,77.10
2018-03-22T23:32:28.995Z,42.20
2018-03-22T23:34:56.701Z,50.43
2018-03-22T23:37:24.859Z,47.77
2018-03-22T23:39:52.530Z,57.63
2018-03-22T23:42:20.185Z,78.03
2018-03-22T23:44:48.413Z,63.87
2018-03-22T23:47:16.177Z,48.70
2018-03-22T23:49:43.900Z,65.40
2018-03-22T23:52:11.623Z,58.80
2018-03-22T23:54:39.360Z,50.97
2018-03-22T23:57:07.076Z,55.20
2018-03-22T23:59:34.818Z,65.70
